createdAt,value
2022-11-05T09:17:38.302Z,25.70
2022-11-05T09:22:44.184Z,21.57
2022-11-05T09:27:46.981Z,25.23
2022-11-05T09:32:49.685Z,18.60
2022-11-05T09:37:55.606Z,23.53
2022-11-05T09:43:03.171Z,24.03
2022-11-05T09:48:15.420Z,35.13
2022-11-05T09:53:20.297Z,26.33
2022-11-05T09:58:44.224Z,28.30
2022-11-05T10:03:51.023Z,27.13
2022-11-05T10:09:11.305Z,20.37
2022-11-05T10:14:23.522Z,23.40
2022-11-05T10:19:36.394Z,20.93
2022-11-05T10:24:43.406Z,21.13
2022-11-05T10:29:47.070Z,22.27
2022-11-05T10:34:51.762Z,17.80
2022-11-05T10:39:55.329Z,26.07
2022-11-05T10:45:08.473Z,23.63
2022-11-05T10:50:18.171Z,21.03
2022-11-05T10:55:36.945Z,23.57
2022-11-05T11:00:40.345Z,17.67
2022-11-05T11:05:43.272Z,12.77
2022-11-05T11:10:52.255Z,14.60
2022-11-05T11:15:55.715Z,17.70
2022-11-05T11:21:14.661Z,16.77
2022-11-05T11:26:17.573Z,13.20
2022-11-05T11:31:26.250Z,21.70
2022-11-05T11:36:50.671Z,15.67
2022-11-05T11:42:03.742Z,10.43
2022-11-05T11:47:15.772Z,8.67
2022-11-05T11:52:30.795Z,10.27
2022-11-05T11:57:44.479Z,12.33
2022-11-05T12:03:21.586Z,10.50
2022-11-05T12:09:03.679Z,17.37
2022-11-05T12:14:34.872Z,11.30
2022-11-05T12:19:52.643Z,9.83
2022-11-05T12:25:18.524Z,10.87
2022-11-05T12:30:22.833Z,14.73
2022-11-05T12:35:57.437Z,9.90
2022-11-05T12:41:37.100Z,15.87
2022-11-05T12:47:03.567Z,12.20
2022-11-05T12:52:17.175Z,13.07
2022-11-05T12:57:22.664Z,10.67
2022-11-05T13:02:47.019Z,14.43
2022-11-05T13:08:23.746Z,16.07
2022-11-05T13:13:45.493Z,8.23
2022-11-05T13:19:09.905Z,14.20
2022-11-05T13:24:26.414Z,10.87
2022-11-05T13:29:47.995Z,7.73
2022-11-05T13:34:57.193Z,11.90
2022-11-05T13:40:06.353Z,14.53
2022-11-05T13:45:27.163Z,12.63
2022-11-05T13:50:46.173Z,10.70
2022-11-05T13:55:58.125Z,8.60
2022-11-05T14:01:46.964Z,8.27
2022-11-05T14:06:50.048Z,7.37
2022-11-05T14:11:56.677Z,10.60
2022-11-05T14:17:08.507Z,7.90
2022-11-05T14:22:32.954Z,5.13
2022-11-05T14:27:41.947Z,11.03
2022-11-05T14:32:50.123Z,8.57
2022-11-05T14:37:56.540Z,7.50
2022-11-05T14:43:02.619Z,10.57
2022-11-05T14:48:37.720Z,12.67
2022-11-05T14:53:41.006Z,11.77
2022-11-05T14:58:45.337Z,15.20
2022-11-05T15:04:16.964Z,15.80
2022-11-05T15:09:28.849Z,15.93
2022-11-05T15:14:52.078Z,10.73
2022-11-05T15:19:55.853Z,9.30
2022-11-05T15:24:58.983Z,10.67
2022-11-05T15:30:20.337Z,8.93
2022-11-05T15:35:29.757Z,5.07
2022-11-05T15:40:34.129Z,6.33
2022-11-05T15:45:36.960Z,6.30
2022-11-05T15:50:40.103Z,10.93
2022-11-05T15:55:55.889Z,10.33
2022-11-05T16:00:58.670Z,8.00
2022-11-05T16:06:02.445Z,12.63
2022-11-05T16:11:05.335Z,8.33
2022-11-05T16:16:26.176Z,7.97
2022-11-05T16:21:29.047Z,6.10
2022-11-05T16:27:01.671Z,9.53
2022-11-05T16:32:30.549Z,7.20
2022-11-05T16:37:45.236Z,10.83
2022-11-05T16:42:53.978Z,10.63
2022-11-05T16:47:56.774Z,9.90
2022-11-05T16:52:59.589Z,11.97
2022-11-05T16:58:02.467Z,11.00
2022-11-05T17:03:05.241Z,9.80
2022-11-05T17:08:08.849Z,16.53
2022-11-05T17:13:20.643Z,15.27
2022-11-05T17:18:23.933Z,14.93
2022-11-05T17:23:26.899Z,15.13
2022-11-05T17:28:30.547Z,18.17
2022-11-05T17:33:34.337Z,28.10
2022-11-05T17:38:37.588Z,24.20
2022-11-05T17:43:40.569Z,29.00
2022-11-05T17:48:44.781Z,24.80
2022-11-05T17:53:49.316Z,28.53
2022-11-05T17:58:52.121Z,26.47
2022-11-05T18:03:55.612Z,33.97
2022-11-05T18:08:58.360Z,28.93
2022-11-05T18:14:01.284Z,26.43
2022-11-05T18:19:04.258Z,30.50
2022-11-05T18:24:07.739Z,33.30
2022-11-05T18:29:10.709Z,30.23
2022-11-05T18:34:13.429Z,39.13
2022-11-05T18:39:16.186Z,38.63
2022-11-05T18:44:22.846Z,37.23
2022-11-05T18:49:25.942Z,31.07
2022-11-05T18:54:28.943Z,36.53
2022-11-05T18:59:39.753Z,31.50
2022-11-05T19:05:00.345Z,30.63
2022-11-05T19:10:06.997Z,34.50
2022-11-05T19:15:10.188Z,31.57
2022-11-05T19:20:13.388Z,30.23
2022-11-05T19:25:16.201Z,31.97
2022-11-05T19:30:19.026Z,34.23
2022-11-05T19:35:22.276Z,32.57
2022-11-05T19:40:25.330Z,31.13
2022-11-05T19:45:44.262Z,39.10
2022-11-05T19:50:48.046Z,33.70
2022-11-05T19:55:50.855Z,38.13
2022-11-05T20:00:56.167Z,37.93
2022-11-05T20:06:03.696Z,37.77
2022-11-05T20:11:07.042Z,39.43
2022-11-05T20:16:24.539Z,40.83
2022-11-05T20:21:27.281Z,39.53
2022-11-05T20:26:30.180Z,37.90
2022-11-05T20:31:32.946Z,37.63
2022-11-05T20:36:35.655Z,35.47
2022-11-05T20:41:38.811Z,39.10
2022-11-05T20:46:41.625Z,34.73
2022-11-05T20:51:44.342Z,35.40
2022-11-05T20:56:47.111Z,40.70
2022-11-05T21:01:52.131Z,37.10
2022-11-05T21:06:54.986Z,32.93
2022-11-05T21:12:12.923Z,39.70
2022-11-05T21:17:15.633Z,38.87
2022-11-05T21:22:18.469Z,37.40
2022-11-05T21:27:21.231Z,40.53
2022-11-05T21:32:23.932Z,41.80
2022-11-05T21:37:27.101Z,41.60
2022-11-05T21:42:30.539Z,34.07
2022-11-05T21:47:33.427Z,42.70
2022-11-05T21:52:54.700Z,38.20
2022-11-05T21:58:17.332Z,32.10
2022-11-05T22:03:20.067Z,30.63
2022-11-05T22:08:22.935Z,31.17
2022-11-05T22:13:25.619Z,28.57
2022-11-05T22:18:28.398Z,26.83
2022-11-05T22:23:31.087Z,25.53
2022-11-05T22:28:33.796Z,25.50
